sensor_id;sensor_type;location;lat;lon;timestamp;temperature;humidity
14142;DHT22;7151;52.246;4.820;2024-03-17T00:00:04;12.00;70.60
14142;DHT22;7151;52.246;4.820;2024-03-17T00:02:30;12.00;70.60
14142;DHT22;7151;52.246;4.820;2024-03-17T00:04:56;12.10;70.70
14142;DHT22;7151;52.246;4.820;2024-03-17T00:07:21;12.00;70.70
14142;DHT22;7151;52.246;4.820;2024-03-17T00:09:48;11.90;70.70
14142;DHT22;7151;52.246;4.820;2024-03-17T00:12:13;11.90;70.80
14142;DHT22;7151;52.246;4.820;2024-03-17T00:14:39;11.90;70.80
14142;DHT22;7151;52.246;4.820;2024-03-17T00:17:05;11.90;70.80
14142;DHT22;7151;52.246;4.820;2024-03-17T00:19:30;11.90;70.90
14142;DHT22;7151;52.246;4.820;2024-03-17T00:21:56;11.90;70.90
14142;DHT22;7151;52.246;4.820;2024-03-17T00:24:21;11.90;70.90
14142;DHT22;7151;52.246;4.820;2024-03-17T00:26:48;11.90;71.00
14142;DHT22;7151;52.246;4.820;2024-03-17T00:29:14;11.90;71.10
14142;DHT22;7151;52.246;4.820;2024-03-17T00:31:40;11.80;71.10
14142;DHT22;7151;52.246;4.820;2024-03-17T00:34:06;11.90;71.20
14142;DHT22;7151;52.246;4.820;2024-03-17T00:36:32;11.80;71.20
14142;DHT22;7151;52.246;4.820;2024-03-17T00:38:57;11.80;71.30
14142;DHT22;7151;52.246;4.820;2024-03-17T00:41:23;11.80;71.30
14142;DHT22;7151;52.246;4.820;2024-03-17T00:43:49;11.80;71.40
14142;DHT22;7151;52.246;4.820;2024-03-17T00:46:15;11.80;71.40
14142;DHT22;7151;52.246;4.820;2024-03-17T00:48:41;11.80;71.50
14142;DHT22;7151;52.246;4.820;2024-03-17T00:51:07;11.80;71.50
14142;DHT22;7151;52.246;4.820;2024-03-17T00:53:32;11.90;71.70
14142;DHT22;7151;52.246;4.820;2024-03-17T00:55:58;11.80;71.70
14142;DHT22;7151;52.246;4.820;2024-03-17T00:58:25;11.80;71.70
14142;DHT22;7151;52.246;4.820;2024-03-17T01:00:51;11.80;71.70
14142;DHT22;7151;52.246;4.820;2024-03-17T01:03:17;11.70;71.70
14142;DHT22;7151;52.246;4.820;2024-03-17T01:05:43;11.80;71.80
14142;DHT22;7151;52.246;4.820;2024-03-17T01:08:10;11.70;71.80
14142;DHT22;7151;52.246;4.820;2024-03-17T01:10:40;11.70;71.80
14142;DHT22;7151;52.246;4.820;2024-03-17T01:13:07;11.80;71.90
14142;DHT22;7151;52.246;4.820;2024-03-17T01:15:33;11.80;71.90
14142;DHT22;7151;52.246;4.820;2024-03-17T01:17:59;11.70;71.90
14142;DHT22;7151;52.246;4.820;2024-03-17T01:20:25;11.70;72.00
14142;DHT22;7151;52.246;4.820;2024-03-17T01:22:51;11.70;72.00
14142;DHT22;7151;52.246;4.820;2024-03-17T01:25:17;11.70;72.00
14142;DHT22;7151;52.246;4.820;2024-03-17T01:27:42;11.70;72.80
14142;DHT22;7151;52.246;4.820;2024-03-17T01:30:10;11.70;72.10
14142;DHT22;7151;52.246;4.820;2024-03-17T01:32:35;11.70;72.20
14142;DHT22;7151;52.246;4.820;2024-03-17T01:35:01;11.70;72.10
14142;DHT22;7151;52.246;4.820;2024-03-17T01:37:27;11.70;72.30
14142;DHT22;7151;52.246;4.820;2024-03-17T01:39:57;11.70;72.30
14142;DHT22;7151;52.246;4.820;2024-03-17T01:42:23;11.70;72.30
14142;DHT22;7151;52.246;4.820;2024-03-17T01:44:49;11.70;72.30
14142;DHT22;7151;52.246;4.820;2024-03-17T01:47:18;11.70;72.40
14142;DHT22;7151;52.246;4.820;2024-03-17T01:49:47;11.80;72.60
14142;DHT22;7151;52.246;4.820;2024-03-17T01:52:17;11.70;72.40
14142;DHT22;7151;52.246;4.820;2024-03-17T01:54:44;11.70;72.40
14142;DHT22;7151;52.246;4.820;2024-03-17T01:57:11;11.70;72.50
14142;DHT22;7151;52.246;4.820;2024-03-17T01:59:37;11.70;72.50
14142;DHT22;7151;52.246;4.820;2024-03-17T02:02:03;11.70;72.50
14142;DHT22;7151;52.246;4.820;2024-03-17T02:04:29;11.70;72.50
14142;DHT22;7151;52.246;4.820;2024-03-17T02:06:55;11.70;72.60
14142;DHT22;7151;52.246;4.820;2024-03-17T02:09:20;11.80;72.60
14142;DHT22;7151;52.246;4.820;2024-03-17T02:11:47;11.80;72.60
14142;DHT22;7151;52.246;4.820;2024-03-17T02:14:14;11.70;72.60
14142;DHT22;7151;52.246;4.820;2024-03-17T02:16:40;11.70;72.70
14142;DHT22;7151;52.246;4.820;2024-03-17T02:19:06;11.70;72.80
14142;DHT22;7151;52.246;4.820;2024-03-17T02:21:31;11.80;72.80
14142;DHT22;7151;52.246;4.820;2024-03-17T02:23:57;11.70;72.80
14142;DHT22;7151;52.246;4.820;2024-03-17T02:26:25;11.70;72.80
14142;DHT22;7151;52.246;4.820;2024-03-17T02:28:50;11.70;72.80
14142;DHT22;7151;52.246;4.820;2024-03-17T02:31:17;11.70;72.80
14142;DHT22;7151;52.246;4.820;2024-03-17T02:33:44;11.70;72.90
14142;DHT22;7151;52.246;4.820;2024-03-17T02:36:10;11.70;72.90
14142;DHT22;7151;52.246;4.820;2024-03-17T02:38:38;11.70;72.90
14142;DHT22;7151;52.246;4.820;2024-03-17T02:41:23;11.70;72.90
14142;DHT22;7151;52.246;4.820;2024-03-17T02:43:49;11.70;72.90
14142;DHT22;7151;52.246;4.820;2024-03-17T02:46:16;11.70;73.00
14142;DHT22;7151;52.246;4.820;2024-03-17T02:48:42;11.70;73.10
14142;DHT22;7151;52.246;4.820;2024-03-17T02:51:16;11.70;73.10
14142;DHT22;7151;52.246;4.820;2024-03-17T02:53:46;11.70;73.10
14142;DHT22;7151;52.246;4.820;2024-03-17T02:56:13;11.70;73.20
14142;DHT22;7151;52.246;4.820;2024-03-17T02:58:43;11.70;73.20
14142;DHT22;7151;52.246;4.820;2024-03-17T03:01:09;11.70;73.20
14142;DHT22;7151;52.246;4.820;2024-03-17T03:03:36;11.70;73.30
14142;DHT22;7151;52.246;4.820;2024-03-17T03:06:02;11.70;73.40
14142;DHT22;7151;52.246;4.820;2024-03-17T03:08:41;11.70;73.40
14142;DHT22;7151;52.246;4.820;2024-03-17T03:11:08;11.70;73.50
14142;DHT22;7151;52.246;4.820;2024-03-17T03:13:40;11.70;73.50
14142;DHT22;7151;52.246;4.820;2024-03-17T03:16:07;11.70;73.50
14142;DHT22;7151;52.246;4.820;2024-03-17T03:18:34;11.70;73.50
14142;DHT22;7151;52.246;4.820;2024-03-17T03:20:59;11.70;73.70
14142;DHT22;7151;52.246;4.820;2024-03-17T03:23:25;11.60;73.70
14142;DHT22;7151;52.246;4.820;2024-03-17T03:25:56;11.70;73.80
14142;DHT22;7151;52.246;4.820;2024-03-17T03:28:25;11.70;73.80
14142;DHT22;7151;52.246;4.820;2024-03-17T03:30:51;11.70;73.90
14142;DHT22;7151;52.246;4.820;2024-03-17T03:33:18;11.70;73.90
14142;DHT22;7151;52.246;4.820;2024-03-17T03:35:43;11.70;74.00
14142;DHT22;7151;52.246;4.820;2024-03-17T03:38:09;11.70;74.00
14142;DHT22;7151;52.246;4.820;2024-03-17T03:40:35;11.70;74.00
14142;DHT22;7151;52.246;4.820;2024-03-17T03:43:00;11.70;74.10
14142;DHT22;7151;52.246;4.820;2024-03-17T03:45:26;11.70;74.10
14142;DHT22;7151;52.246;4.820;2024-03-17T03:47:52;11.70;74.10
14142;DHT22;7151;52.246;4.820;2024-03-17T03:50:22;11.70;74.10
14142;DHT22;7151;52.246;4.820;2024-03-17T03:52:48;11.70;74.30
14142;DHT22;7151;52.246;4.820;2024-03-17T03:55:16;11.70;74.30
14142;DHT22;7151;52.246;4.820;2024-03-17T03:57:43;11.70;74.30
14142;DHT22;7151;52.246;4.820;2024-03-17T04:00:12;11.80;74.40
14142;DHT22;7151;52.246;4.820;2024-03-17T04:02:44;11.70;74.40
14142;DHT22;7151;52.246;4.820;2024-03-17T04:05:10;11.70;74.40
14142;DHT22;7151;52.246;4.820;2024-03-17T04:07:39;11.70;74.40
14142;DHT22;7151;52.246;4.820;2024-03-17T04:10:06;11.70;74.40
14142;DHT22;7151;52.246;4.820;2024-03-17T04:12:32;11.70;74.50
14142;DHT22;7151;52.246;4.820;2024-03-17T04:14:59;11.80;74.60
14142;DHT22;7151;52.246;4.820;2024-03-17T04:17:25;11.70;74.50
14142;DHT22;7151;52.246;4.820;2024-03-17T04:19:52;11.80;74.60
14142;DHT22;7151;52.246;4.820;2024-03-17T04:22:19;11.70;74.60
14142;DHT22;7151;52.246;4.820;2024-03-17T04:24:45;11.80;74.60
14142;DHT22;7151;52.246;4.820;2024-03-17T04:27:11;11.90;74.70
14142;DHT22;7151;52.246;4.820;2024-03-17T04:29:37;11.70;74.60
14142;DHT22;7151;52.246;4.820;2024-03-17T04:32:03;11.80;74.70
14142;DHT22;7151;52.246;4.820;2024-03-17T04:34:30;11.80;74.70
14142;DHT22;7151;52.246;4.820;2024-03-17T04:36:56;11.70;74.70
14142;DHT22;7151;52.246;4.820;2024-03-17T04:39:22;11.80;74.80
14142;DHT22;7151;52.246;4.820;2024-03-17T04:41:48;11.70;74.80
14142;DHT22;7151;52.246;4.820;2024-03-17T04:44:15;11.80;74.90
14142;DHT22;7151;52.246;4.820;2024-03-17T04:46:41;11.70;74.90
14142;DHT22;7151;52.246;4.820;2024-03-17T04:49:06;11.70;75.00
14142;DHT22;7151;52.246;4.820;2024-03-17T04:51:33;11.80;75.00
14142;DHT22;7151;52.246;4.820;2024-03-17T04:53:59;11.70;75.00
14142;DHT22;7151;52.246;4.820;2024-03-17T04:56:25;11.70;75.00
14142;DHT22;7151;52.246;4.820;2024-03-17T04:58:50;11.70;75.10
14142;DHT22;7151;52.246;4.820;2024-03-17T05:01:16;11.80;75.20
14142;DHT22;7151;52.246;4.820;2024-03-17T05:03:42;11.70;75.10
14142;DHT22;7151;52.246;4.820;2024-03-17T05:06:07;11.70;75.10
14142;DHT22;7151;52.246;4.820;2024-03-17T05:08:33;11.80;75.20
14142;DHT22;7151;52.246;4.820;2024-03-17T05:11:03;11.80;75.20
14142;DHT22;7151;52.246;4.820;2024-03-17T05:13:33;11.70;75.00
14142;DHT22;7151;52.246;4.820;2024-03-17T05:16:00;11.80;75.20
14142;DHT22;7151;52.246;4.820;2024-03-17T05:18:26;11.70;75.00
14142;DHT22;7151;52.246;4.820;2024-03-17T05:20:58;11.70;75.10
14142;DHT22;7151;52.246;4.820;2024-03-17T05:23:26;11.70;75.00
14142;DHT22;7151;52.246;4.820;2024-03-17T05:25:52;11.70;75.00
14142;DHT22;7151;52.246;4.820;2024-03-17T05:28:18;11.80;75.10
14142;DHT22;7151;52.246;4.820;2024-03-17T05:30:43;11.70;75.00
14142;DHT22;7151;52.246;4.820;2024-03-17T05:33:09;11.70;75.00
14142;DHT22;7151;52.246;4.820;2024-03-17T05:35:35;11.70;75.00
14142;DHT22;7151;52.246;4.820;2024-03-17T05:38:00;11.70;75.00
14142;DHT22;7151;52.246;4.820;2024-03-17T05:40:26;11.70;75.10
14142;DHT22;7151;52.246;4.820;2024-03-17T05:42:52;11.70;75.00
14142;DHT22;7151;52.246;4.820;2024-03-17T05:45:17;11.70;75.00
14142;DHT22;7151;52.246;4.820;2024-03-17T05:47:43;11.70;75.00
14142;DHT22;7151;52.246;4.820;2024-03-17T05:50:09;11.70;75.10
14142;DHT22;7151;52.246;4.820;2024-03-17T05:52:34;11.70;75.10
14142;DHT22;7151;52.246;4.820;2024-03-17T05:55:00;11.70;75.10
14142;DHT22;7151;52.246;4.820;2024-03-17T05:57:26;11.70;75.80
14142;DHT22;7151;52.246;4.820;2024-03-17T05:59:51;11.70;75.10
14142;DHT22;7151;52.246;4.820;2024-03-17T06:02:17;11.70;75.20
14142;DHT22;7151;52.246;4.820;2024-03-17T06:04:44;11.70;75.20
14142;DHT22;7151;52.246;4.820;2024-03-17T06:07:10;11.70;75.20
14142;DHT22;7151;52.246;4.820;2024-03-17T06:09:35;11.70;75.20
14142;DHT22;7151;52.246;4.820;2024-03-17T06:12:01;11.70;75.20
14142;DHT22;7151;52.246;4.820;2024-03-17T06:14:29;11.70;75.20
14142;DHT22;7151;52.246;4.820;2024-03-17T06:16:55;11.70;75.20
14142;DHT22;7151;52.246;4.820;2024-03-17T06:19:20;11.80;75.30
14142;DHT22;7151;52.246;4.820;2024-03-17T06:21:46;11.70;75.30
14142;DHT22;7151;52.246;4.820;2024-03-17T06:24:11;11.70;75.30
14142;DHT22;7151;52.246;4.820;2024-03-17T06:26:37;11.80;75.40
14142;DHT22;7151;52.246;4.820;2024-03-17T06:29:03;11.70;75.30
14142;DHT22;7151;52.246;4.820;2024-03-17T06:31:28;11.70;75.40
14142;DHT22;7151;52.246;4.820;2024-03-17T06:33:54;11.70;75.40
14142;DHT22;7151;52.246;4.820;2024-03-17T06:36:19;11.70;75.50
14142;DHT22;7151;52.246;4.820;2024-03-17T06:38:45;11.80;75.50
14142;DHT22;7151;52.246;4.820;2024-03-17T06:41:11;11.70;75.50
14142;DHT22;7151;52.246;4.820;2024-03-17T06:43:37;11.80;75.50
14142;DHT22;7151;52.246;4.820;2024-03-17T06:46:04;11.70;75.50
14142;DHT22;7151;52.246;4.820;2024-03-17T06:48:30;11.70;75.50
14142;DHT22;7151;52.246;4.820;2024-03-17T06:50:56;11.80;75.60
14142;DHT22;7151;52.246;4.820;2024-03-17T06:53:22;11.80;75.70
14142;DHT22;7151;52.246;4.820;2024-03-17T06:55:57;11.80;75.80
14142;DHT22;7151;52.246;4.820;2024-03-17T06:58:24;11.80;75.80
14142;DHT22;7151;52.246;4.820;2024-03-17T07:00:59;11.80;75.80
14142;DHT22;7151;52.246;4.820;2024-03-17T07:03:26;11.80;75.90
14142;DHT22;7151;52.246;4.820;2024-03-17T07:05:57;11.80;75.90
14142;DHT22;7151;52.246;4.820;2024-03-17T07:08:23;11.70;75.90
14142;DHT22;7151;52.246;4.820;2024-03-17T07:11:15;11.80;76.00
14142;DHT22;7151;52.246;4.820;2024-03-17T07:13:42;11.80;76.10
14142;DHT22;7151;52.246;4.820;2024-03-17T07:16:09;11.80;76.00
14142;DHT22;7151;52.246;4.820;2024-03-17T07:18:35;11.80;76.10
14142;DHT22;7151;52.246;4.820;2024-03-17T07:21:03;11.90;76.20
14142;DHT22;7151;52.246;4.820;2024-03-17T07:23:34;11.80;76.20
14142;DHT22;7151;52.246;4.820;2024-03-17T07:26:01;11.80;76.20
14142;DHT22;7151;52.246;4.820;2024-03-17T07:28:27;11.90;76.40
14142;DHT22;7151;52.246;4.820;2024-03-17T07:30:55;11.90;76.40
14142;DHT22;7151;52.246;4.820;2024-03-17T07:33:21;12.00;76.50
14142;DHT22;7151;52.246;4.820;2024-03-17T07:35:51;11.90;76.50
14142;DHT22;7151;52.246;4.820;2024-03-17T07:38:18;12.10;76.80
14142;DHT22;7151;52.246;4.820;2024-03-17T07:41:00;12.00;76.70
14142;DHT22;7151;52.246;4.820;2024-03-17T07:43:27;12.00;76.80
14142;DHT22;7151;52.246;4.820;2024-03-17T07:45:59;12.00;76.80
14142;DHT22;7151;52.246;4.820;2024-03-17T07:48:25;12.00;76.80
14142;DHT22;7151;52.246;4.820;2024-03-17T07:50:59;12.10;77.00
14142;DHT22;7151;52.246;4.820;2024-03-17T07:53:26;12.10;77.00
14142;DHT22;7151;52.246;4.820;2024-03-17T07:56:05;12.10;76.90
14142;DHT22;7151;52.246;4.820;2024-03-17T07:58:33;12.10;77.10
14142;DHT22;7151;52.246;4.820;2024-03-17T08:01:06;12.20;77.20
14142;DHT22;7151;52.246;4.820;2024-03-17T08:03:34;12.20;77.00
14142;DHT22;7151;52.246;4.820;2024-03-17T08:06:03;12.20;77.00
14142;DHT22;7151;52.246;4.820;2024-03-17T08:08:29;12.20;77.00
14142;DHT22;7151;52.246;4.820;2024-03-17T08:10:55;12.20;77.10
14142;DHT22;7151;52.246;4.820;2024-03-17T08:13:21;12.20;77.10
14142;DHT22;7151;52.246;4.820;2024-03-17T08:16:01;12.30;77.20
14142;DHT22;7151;52.246;4.820;2024-03-17T08:18:28;12.20;77.30
14142;DHT22;7151;52.246;4.820;2024-03-17T08:20:54;12.30;77.40
14142;DHT22;7151;52.246;4.820;2024-03-17T08:23:20;12.20;77.40
14142;DHT22;7151;52.246;4.820;2024-03-17T08:25:53;12.30;77.60
14142;DHT22;7151;52.246;4.820;2024-03-17T08:28:19;12.30;77.80
14142;DHT22;7151;52.246;4.820;2024-03-17T08:30:51;12.30;77.80
14142;DHT22;7151;52.246;4.820;2024-03-17T08:33:17;12.40;77.90
14142;DHT22;7151;52.246;4.820;2024-03-17T08:36:02;12.40;78.00
14142;DHT22;7151;52.246;4.820;2024-03-17T08:38:29;12.40;78.00
14142;DHT22;7151;52.246;4.820;2024-03-17T08:41:05;12.40;78.00
14142;DHT22;7151;52.246;4.820;2024-03-17T08:43:32;12.40;78.00
14142;DHT22;7151;52.246;4.820;2024-03-17T08:48:27;12.50;78.00
14142;DHT22;7151;52.246;4.820;2024-03-17T08:50:55;12.50;78.00
14142;DHT22;7151;52.246;4.820;2024-03-17T08:53:21;12.50;78.10
14142;DHT22;7151;52.246;4.820;2024-03-17T08:55:47;12.50;78.10
14142;DHT22;7151;52.246;4.820;2024-03-17T08:58:12;12.50;78.10
14142;DHT22;7151;52.246;4.820;2024-03-17T09:00:38;12.50;78.10
14142;DHT22;7151;52.246;4.820;2024-03-17T09:03:05;12.60;78.30
14142;DHT22;7151;52.246;4.820;2024-03-17T09:05:34;12.60;78.30
14142;DHT22;7151;52.246;4.820;2024-03-17T09:07:59;12.60;78.30
14142;DHT22;7151;52.246;4.820;2024-03-17T09:10:26;12.60;79.10
14142;DHT22;7151;52.246;4.820;2024-03-17T09:12:51;12.60;78.40
14142;DHT22;7151;52.246;4.820;2024-03-17T09:15:17;12.60;78.50
14142;DHT22;7151;52.246;4.820;2024-03-17T09:17:43;12.70;78.60
14142;DHT22;7151;52.246;4.820;2024-03-17T09:20:11;12.70;78.70
14142;DHT22;7151;52.246;4.820;2024-03-17T09:22:38;12.70;78.70
14142;DHT22;7151;52.246;4.820;2024-03-17T09:25:06;12.70;78.70
14142;DHT22;7151;52.246;4.820;2024-03-17T09:27:32;12.70;78.90
14142;DHT22;7151;52.246;4.820;2024-03-17T09:29:59;12.70;79.50
14142;DHT22;7151;52.246;4.820;2024-03-17T09:32:25;12.80;78.90
14142;DHT22;7151;52.246;4.820;2024-03-17T09:34:51;12.80;79.00
14142;DHT22;7151;52.246;4.820;2024-03-17T09:37:16;12.80;78.80
14142;DHT22;7151;52.246;4.820;2024-03-17T09:39:42;12.80;78.90
14142;DHT22;7151;52.246;4.820;2024-03-17T09:42:17;12.80;78.80
14142;DHT22;7151;52.246;4.820;2024-03-17T09:44:46;12.90;79.00
14142;DHT22;7151;52.246;4.820;2024-03-17T09:47:18;12.80;79.00
14142;DHT22;7151;52.246;4.820;2024-03-17T09:49:46;12.90;79.00
14142;DHT22;7151;52.246;4.820;2024-03-17T09:52:19;12.90;79.00
14142;DHT22;7151;52.246;4.820;2024-03-17T09:54:46;12.90;79.10
14142;DHT22;7151;52.246;4.820;2024-03-17T09:57:17;12.90;79.10
14142;DHT22;7151;52.246;4.820;2024-03-17T09:59:43;13.00;79.30
14142;DHT22;7151;52.246;4.820;2024-03-17T10:02:17;13.00;79.30
14142;DHT22;7151;52.246;4.820;2024-03-17T10:04:44;13.10;79.40
14142;DHT22;7151;52.246;4.820;2024-03-17T10:07:09;13.00;79.30
14142;DHT22;7151;52.246;4.820;2024-03-17T10:09:35;13.10;79.30
14142;DHT22;7151;52.246;4.820;2024-03-17T10:12:02;13.20;79.30
14142;DHT22;7151;52.246;4.820;2024-03-17T10:14:27;13.20;79.40
14142;DHT22;7151;52.246;4.820;2024-03-17T10:16:53;13.30;80.20
14142;DHT22;7151;52.246;4.820;2024-03-17T10:19:26;13.30;79.40
14142;DHT22;7151;52.246;4.820;2024-03-17T10:22:00;13.30;79.40
14142;DHT22;7151;52.246;4.820;2024-03-17T10:24:27;13.40;79.40
14142;DHT22;7151;52.246;4.820;2024-03-17T10:26:55;13.40;79.40
14142;DHT22;7151;52.246;4.820;2024-03-17T10:29:32;13.40;79.40
14142;DHT22;7151;52.246;4.820;2024-03-17T10:34:31;13.50;79.50
14142;DHT22;7151;52.246;4.820;2024-03-17T10:37:08;13.50;79.40
14142;DHT22;7151;52.246;4.820;2024-03-17T10:39:37;13.50;79.40
14142;DHT22;7151;52.246;4.820;2024-03-17T10:42:04;13.50;79.40
14142;DHT22;7151;52.246;4.820;2024-03-17T10:44:31;13.60;79.60
14142;DHT22;7151;52.246;4.820;2024-03-17T10:46:59;13.60;79.60
14142;DHT22;7151;52.246;4.820;2024-03-17T10:49:33;13.60;79.60
14142;DHT22;7151;52.246;4.820;2024-03-17T10:52:08;13.60;79.60
14142;DHT22;7151;52.246;4.820;2024-03-17T10:54:38;13.70;79.80
14142;DHT22;7151;52.246;4.820;2024-03-17T10:59:55;13.70;79.80
14142;DHT22;7151;52.246;4.820;2024-03-17T11:02:24;13.80;79.70
14142;DHT22;7151;52.246;4.820;2024-03-17T11:04:55;13.80;79.70
14142;DHT22;7151;52.246;4.820;2024-03-17T11:07:22;13.80;79.70
14142;DHT22;7151;52.246;4.820;2024-03-17T11:09:50;13.90;79.80
14142;DHT22;7151;52.246;4.820;2024-03-17T11:12:42;13.90;79.90
14142;DHT22;7151;52.246;4.820;2024-03-17T11:18:27;14.00;80.00
14142;DHT22;7151;52.246;4.820;2024-03-17T11:20:43;14.00;80.00
14142;DHT22;7151;52.246;4.820;2024-03-17T11:23:30;14.00;80.10
14142;DHT22;7151;52.246;4.820;2024-03-17T11:25:57;14.10;80.10
14142;DHT22;7151;52.246;4.820;2024-03-17T11:31:45;14.10;80.30
14142;DHT22;7151;52.246;4.820;2024-03-17T11:34:33;14.10;80.20
14142;DHT22;7151;52.246;4.820;2024-03-17T11:37:00;14.20;80.10
14142;DHT22;7151;52.246;4.820;2024-03-17T11:39:51;14.20;80.00
14142;DHT22;7151;52.246;4.820;2024-03-17T11:42:25;14.20;80.10
14142;DHT22;7151;52.246;4.820;2024-03-17T11:45:01;14.20;80.00
14142;DHT22;7151;52.246;4.820;2024-03-17T11:47:40;14.20;80.20
14142;DHT22;7151;52.246;4.820;2024-03-17T11:50:10;14.30;80.30
14142;DHT22;7151;52.246;4.820;2024-03-17T11:52:37;14.30;80.50
14142;DHT22;7151;52.246;4.820;2024-03-17T11:55:03;14.30;80.40
14142;DHT22;7151;52.246;4.820;2024-03-17T11:57:29;14.40;80.50
14142;DHT22;7151;52.246;4.820;2024-03-17T11:59:55;14.40;80.60
14142;DHT22;7151;52.246;4.820;2024-03-17T12:02:30;14.40;80.60
14142;DHT22;7151;52.246;4.820;2024-03-17T12:05:06;14.50;80.80
14142;DHT22;7151;52.246;4.820;2024-03-17T12:07:42;14.50;80.80
14142;DHT22;7151;52.246;4.820;2024-03-17T12:10:10;14.50;80.80
14142;DHT22;7151;52.246;4.820;2024-03-17T12:12:36;14.60;80.90
14142;DHT22;7151;52.246;4.820;2024-03-17T12:15:03;14.60;80.90
14142;DHT22;7151;52.246;4.820;2024-03-17T12:17:31;14.60;80.90
14142;DHT22;7151;52.246;4.820;2024-03-17T12:19:56;14.60;80.90
14142;DHT22;7151;52.246;4.820;2024-03-17T12:22:24;14.70;80.90
14142;DHT22;7151;52.246;4.820;2024-03-17T12:24:55;14.60;81.20
14142;DHT22;7151;52.246;4.820;2024-03-17T12:27:23;14.70;81.00
14142;DHT22;7151;52.246;4.820;2024-03-17T12:29:50;14.70;81.10
14142;DHT22;7151;52.246;4.820;2024-03-17T12:32:18;14.70;81.30
14142;DHT22;7151;52.246;4.820;2024-03-17T12:34:45;14.80;81.40
14142;DHT22;7151;52.246;4.820;2024-03-17T12:37:29;14.80;81.50
14142;DHT22;7151;52.246;4.820;2024-03-17T12:40:01;14.80;81.70
14142;DHT22;7151;52.246;4.820;2024-03-17T12:42:27;14.80;81.50
14142;DHT22;7151;52.246;4.820;2024-03-17T12:44:54;14.80;81.70
14142;DHT22;7151;52.246;4.820;2024-03-17T12:47:22;14.80;81.80
14142;DHT22;7151;52.246;4.820;2024-03-17T12:49:49;14.80;81.80
14142;DHT22;7151;52.246;4.820;2024-03-17T12:52:33;14.80;81.90
14142;DHT22;7151;52.246;4.820;2024-03-17T12:58:07;14.80;82.10
14142;DHT22;7151;52.246;4.820;2024-03-17T13:06:50;14.90;82.30
14142;DHT22;7151;52.246;4.820;2024-03-17T13:09:29;14.90;82.30
14142;DHT22;7151;52.246;4.820;2024-03-17T13:12:07;14.90;82.40
14142;DHT22;7151;52.246;4.820;2024-03-17T13:17:55;15.00;83.10
14142;DHT22;7151;52.246;4.820;2024-03-17T13:20:24;15.00;82.50
14142;DHT22;7151;52.246;4.820;2024-03-17T13:23:04;15.00;82.40
14142;DHT22;7151;52.246;4.820;2024-03-17T13:25:55;15.10;82.50
14142;DHT22;7151;52.246;4.820;2024-03-17T13:31:48;15.10;82.40
14142;DHT22;7151;52.246;4.820;2024-03-17T13:34:25;15.20;82.40
14142;DHT22;7151;52.246;4.820;2024-03-17T13:37:40;15.20;82.40
14142;DHT22;7151;52.246;4.820;2024-03-17T13:40:55;15.20;82.30
14142;DHT22;7151;52.246;4.820;2024-03-17T13:43:51;15.30;82.40
14142;DHT22;7151;52.246;4.820;2024-03-17T13:46:39;15.30;82.50
14142;DHT22;7151;52.246;4.820;2024-03-17T13:49:16;15.40;82.60
14142;DHT22;7151;52.246;4.820;2024-03-17T13:52:13;15.40;82.70
14142;DHT22;7151;52.246;4.820;2024-03-17T13:54:47;15.50;82.90
14142;DHT22;7151;52.246;4.820;2024-03-17T14:00:17;15.70;83.20
14142;DHT22;7151;52.246;4.820;2024-03-17T14:06:59;15.90;82.80
14142;DHT22;7151;52.246;4.820;2024-03-17T14:09:40;16.00;82.50
14142;DHT22;7151;52.246;4.820;2024-03-17T14:12:46;16.10;82.30
14142;DHT22;7151;52.246;4.820;2024-03-17T14:16:13;16.10;82.30
14142;DHT22;7151;52.246;4.820;2024-03-17T14:22:35;16.10;81.90
14142;DHT22;7151;52.246;4.820;2024-03-17T14:32:58;16.10;81.50
14142;DHT22;7151;52.246;4.820;2024-03-17T14:39:45;16.10;81.40
14142;DHT22;7151;52.246;4.820;2024-03-17T14:48:33;16.10;81.40
14142;DHT22;7151;52.246;4.820;2024-03-17T14:51:02;16.10;81.20
14142;DHT22;7151;52.246;4.820;2024-03-17T14:53:28;16.10;82.00
14142;DHT22;7151;52.246;4.820;2024-03-17T14:55:53;16.10;81.30
14142;DHT22;7151;52.246;4.820;2024-03-17T14:58:22;16.10;81.10
14142;DHT22;7151;52.246;4.820;2024-03-17T15:00:47;16.10;81.10
14142;DHT22;7151;52.246;4.820;2024-03-17T15:03:16;16.10;81.10
14142;DHT22;7151;52.246;4.820;2024-03-17T15:05:42;16.10;81.10
14142;DHT22;7151;52.246;4.820;2024-03-17T15:08:07;16.10;81.00
14142;DHT22;7151;52.246;4.820;2024-03-17T15:10:35;16.10;80.90
14142;DHT22;7151;52.246;4.820;2024-03-17T15:13:03;16.10;80.90
14142;DHT22;7151;52.246;4.820;2024-03-17T15:15:29;16.20;80.90
14142;DHT22;7151;52.246;4.820;2024-03-17T15:17:55;16.20;80.90
14142;DHT22;7151;52.246;4.820;2024-03-17T15:20:21;16.20;80.90
14142;DHT22;7151;52.246;4.820;2024-03-17T15:22:49;16.20;80.80
14142;DHT22;7151;52.246;4.820;2024-03-17T15:25:16;16.20;80.80
14142;DHT22;7151;52.246;4.820;2024-03-17T15:27:45;16.20;80.80
14142;DHT22;7151;52.246;4.820;2024-03-17T15:30:15;16.20;80.90
14142;DHT22;7151;52.246;4.820;2024-03-17T15:32:47;16.20;80.90
14142;DHT22;7151;52.246;4.820;2024-03-17T15:35:13;16.30;81.70
14142;DHT22;7151;52.246;4.820;2024-03-17T15:37:42;16.20;81.00
14142;DHT22;7151;52.246;4.820;2024-03-17T15:40:09;16.30;81.10
14142;DHT22;7151;52.246;4.820;2024-03-17T15:42:45;16.20;81.10
14142;DHT22;7151;52.246;4.820;2024-03-17T15:45:11;16.30;81.20
14142;DHT22;7151;52.246;4.820;2024-03-17T15:47:37;16.30;81.20
14142;DHT22;7151;52.246;4.820;2024-03-17T15:50:03;16.30;81.30
14142;DHT22;7151;52.246;4.820;2024-03-17T15:52:28;16.30;82.10
14142;DHT22;7151;52.246;4.820;2024-03-17T15:55:15;16.30;82.10
14142;DHT22;7151;52.246;4.820;2024-03-17T15:57:44;16.30;81.50
14142;DHT22;7151;52.246;4.820;2024-03-17T16:00:16;16.30;81.40
14142;DHT22;7151;52.246;4.820;2024-03-17T16:02:44;16.30;81.50
14142;DHT22;7151;52.246;4.820;2024-03-17T16:05:15;16.30;81.60
14142;DHT22;7151;52.246;4.820;2024-03-17T16:07:41;16.30;81.60
14142;DHT22;7151;52.246;4.820;2024-03-17T16:10:11;16.30;81.60
14142;DHT22;7151;52.246;4.820;2024-03-17T16:12:38;16.30;81.90
14142;DHT22;7151;52.246;4.820;2024-03-17T16:15:06;16.20;81.80
14142;DHT22;7151;52.246;4.820;2024-03-17T16:17:33;16.30;82.10
14142;DHT22;7151;52.246;4.820;2024-03-17T16:20:02;16.30;82.20
14142;DHT22;7151;52.246;4.820;2024-03-17T16:22:36;16.20;82.10
14142;DHT22;7151;52.246;4.820;2024-03-17T16:25:03;16.20;82.30
14142;DHT22;7151;52.246;4.820;2024-03-17T16:27:31;16.20;82.50
14142;DHT22;7151;52.246;4.820;2024-03-17T16:29:57;16.20;82.60
14142;DHT22;7151;52.246;4.820;2024-03-17T16:32:26;16.20;82.80
14142;DHT22;7151;52.246;4.820;2024-03-17T16:34:57;16.20;82.90
14142;DHT22;7151;52.246;4.820;2024-03-17T16:37:22;16.20;83.10
14142;DHT22;7151;52.246;4.820;2024-03-17T16:39:52;16.10;83.10
14142;DHT22;7151;52.246;4.820;2024-03-17T16:42:22;16.10;83.30
14142;DHT22;7151;52.246;4.820;2024-03-17T16:45:08;16.10;83.40
14142;DHT22;7151;52.246;4.820;2024-03-17T16:47:35;16.10;83.70
14142;DHT22;7151;52.246;4.820;2024-03-17T16:50:08;16.10;83.70
14142;DHT22;7151;52.246;4.820;2024-03-17T16:52:47;16.20;84.10
14142;DHT22;7151;52.246;4.820;2024-03-17T16:55:22;16.10;84.10